createdAt,value
2023-12-29T00:01:57.012Z,9.56
2023-12-29T00:04:42.077Z,9.34
2023-12-29T00:07:27.316Z,9.42
2023-12-29T00:10:12.620Z,9.02
2023-12-29T00:12:57.642Z,9.06
2023-12-29T00:15:42.950Z,9.28
2023-12-29T00:18:27.911Z,9.67
2023-12-29T00:21:13.226Z,9.75
2023-12-29T00:23:58.387Z,9.91
2023-12-29T00:26:43.535Z,9.23
2023-12-29T00:29:28.511Z,9.15
2023-12-29T00:32:13.954Z,8.43
2023-12-29T00:34:59.223Z,8.59
2023-12-29T00:37:44.389Z,8.67
2023-12-29T00:40:29.311Z,8.98
2023-12-29T00:43:14.551Z,8.88
2023-12-29T00:45:59.680Z,9.02
2023-12-29T00:48:44.994Z,9.01
2023-12-29T00:51:30.117Z,8.06
2023-12-29T00:54:15.093Z,8.45
2023-12-29T00:57:00.248Z,8.21
2023-12-29T00:59:45.400Z,8.48
2023-12-29T01:02:30.526Z,8.51
2023-12-29T01:05:15.812Z,8.78
2023-12-29T01:08:01.556Z,8.61
2023-12-29T01:10:46.806Z,8.87
2023-12-29T01:13:31.910Z,8.91
2023-12-29T01:16:16.868Z,8.56
2023-12-29T01:19:02.059Z,8.46
2023-12-29T01:21:47.358Z,8.35
2023-12-29T01:24:39.902Z,8.01
2023-12-29T01:27:28.294Z,8.31
2023-12-29T01:30:13.627Z,7.73
2023-12-29T01:32:58.848Z,8.36
2023-12-29T01:35:43.780Z,8.18
2023-12-29T01:38:28.742Z,8.23
2023-12-29T01:41:13.907Z,7.86
2023-12-29T01:43:59.361Z,8.25
2023-12-29T01:46:44.358Z,7.94
2023-12-29T01:49:29.580Z,8.01
2023-12-29T01:52:14.675Z,8.51
2023-12-29T01:54:59.711Z,8.37
2023-12-29T01:57:45.054Z,8.22
2023-12-29T02:00:30.548Z,8.16
2023-12-29T02:03:15.870Z,8.20
2023-12-29T02:06:00.792Z,7.87
2023-12-29T02:08:45.946Z,7.83
2023-12-29T02:11:31.063Z,8.21
2023-12-29T02:14:16.049Z,8.45
2023-12-29T02:17:01.448Z,8.42
2023-12-29T02:19:46.878Z,8.29
2023-12-29T02:22:32.156Z,8.35
2023-12-29T02:25:17.062Z,8.36
2023-12-29T02:28:02.446Z,8.36
2023-12-29T02:30:47.864Z,7.78
2023-12-29T02:33:32.937Z,8.04
2023-12-29T02:36:18.939Z,7.67
2023-12-29T02:39:04.061Z,7.96
2023-12-29T02:41:49.137Z,8.44
2023-12-29T02:44:34.088Z,8.20
2023-12-29T02:47:19.322Z,8.45
2023-12-29T02:50:04.786Z,8.33
2023-12-29T02:52:50.027Z,8.39
2023-12-29T02:55:35.110Z,8.41
2023-12-29T02:58:20.147Z,8.32
2023-12-29T03:01:05.643Z,8.48
2023-12-29T03:03:50.909Z,8.14
2023-12-29T03:06:36.091Z,8.29
2023-12-29T03:09:21.247Z,8.56
2023-12-29T03:12:06.408Z,8.74
2023-12-29T03:14:51.695Z,9.36
2023-12-29T03:17:36.776Z,9.21
2023-12-29T03:20:21.863Z,8.79
2023-12-29T03:23:06.780Z,8.88
2023-12-29T03:25:52.607Z,9.21
2023-12-29T03:28:37.844Z,9.25
2023-12-29T03:31:23.372Z,9.39
2023-12-29T03:34:08.504Z,8.67
2023-12-29T03:36:53.680Z,8.82
2023-12-29T03:39:38.911Z,8.96
2023-12-29T03:42:24.123Z,8.80
2023-12-29T03:45:09.134Z,8.58
2023-12-29T03:47:54.725Z,8.42
2023-12-29T03:50:39.672Z,8.85
2023-12-29T03:53:24.850Z,8.55
2023-12-29T03:56:09.921Z,8.69
2023-12-29T03:58:55.187Z,8.64
2023-12-29T04:01:40.134Z,8.76
2023-12-29T04:04:25.141Z,8.94
2023-12-29T04:07:10.086Z,8.60
2023-12-29T04:09:55.188Z,9.08
2023-12-29T04:12:40.506Z,8.89
2023-12-29T04:15:25.567Z,8.56
2023-12-29T04:18:10.552Z,8.68
2023-12-29T04:20:55.846Z,9.36
2023-12-29T04:23:41.533Z,9.11
2023-12-29T04:26:26.490Z,8.94
2023-12-29T04:29:11.286Z,9.49
2023-12-29T04:31:56.551Z,9.21
2023-12-29T04:34:41.644Z,9.38
2023-12-29T04:37:26.493Z,9.33
2023-12-29T04:40:11.750Z,8.55
2023-12-29T04:42:57.128Z,9.20
2023-12-29T04:45:42.478Z,9.01
2023-12-29T04:48:27.506Z,8.89
2023-12-29T04:51:12.668Z,8.83
2023-12-29T04:53:57.685Z,8.47
2023-12-29T04:56:42.997Z,9.12
2023-12-29T04:59:27.952Z,11.44
2023-12-29T05:02:13.192Z,11.32
2023-12-29T05:04:58.434Z,11.26
2023-12-29T05:07:43.397Z,9.85
2023-12-29T05:10:28.763Z,9.59
2023-12-29T05:13:13.849Z,9.05
2023-12-29T05:15:58.815Z,9.50
2023-12-29T05:18:43.807Z,9.36
2023-12-29T05:21:29.260Z,9.64
2023-12-29T05:24:14.459Z,9.20
2023-12-29T05:26:59.331Z,9.42
2023-12-29T05:29:44.577Z,9.03
2023-12-29T05:32:29.833Z,9.47
2023-12-29T05:35:14.758Z,8.50
2023-12-29T05:38:00.122Z,8.54
2023-12-29T05:40:45.656Z,7.55
2023-12-29T05:43:30.992Z,8.47
2023-12-29T05:46:17.536Z,8.34
2023-12-29T05:49:02.750Z,7.27
2023-12-29T05:51:48.957Z,6.72
2023-12-29T05:54:35.189Z,6.79
2023-12-29T05:57:20.486Z,6.67
2023-12-29T06:00:05.552Z,6.55
2023-12-29T06:02:50.884Z,6.54
2023-12-29T06:05:35.745Z,6.58
2023-12-29T06:08:20.824Z,6.74
2023-12-29T06:11:06.074Z,7.02
2023-12-29T06:13:51.036Z,6.56
2023-12-29T06:16:36.004Z,6.45
2023-12-29T06:19:20.946Z,5.84
2023-12-29T06:22:06.270Z,7.50
2023-12-29T06:24:52.562Z,6.63
2023-12-29T06:27:37.729Z,5.97
2023-12-29T06:30:23.037Z,15.45
2023-12-29T06:33:11.119Z,13.80
2023-12-29T06:35:56.240Z,7.61
2023-12-29T06:38:41.318Z,13.69
2023-12-29T06:41:26.453Z,7.45
2023-12-29T06:44:11.651Z,15.82
2023-12-29T06:46:56.827Z,12.20
2023-12-29T06:49:42.172Z,8.51
2023-12-29T06:52:27.237Z,9.47
2023-12-29T06:55:12.506Z,6.39
2023-12-29T06:57:57.750Z,6.73
2023-12-29T07:00:44.486Z,5.57
2023-12-29T07:03:29.735Z,5.57
2023-12-29T07:06:14.864Z,5.28
2023-12-29T07:08:59.903Z,5.47
2023-12-29T07:11:45.068Z,6.32
2023-12-29T07:14:30.270Z,5.90
2023-12-29T07:17:15.299Z,5.63
2023-12-29T07:20:00.340Z,6.83
2023-12-29T07:22:45.522Z,6.53
2023-12-29T07:25:30.601Z,11.92
2023-12-29T07:28:15.868Z,9.21
2023-12-29T07:31:01.169Z,15.51
2023-12-29T07:33:46.545Z,7.44
2023-12-29T07:36:31.561Z,6.83
2023-12-29T07:39:16.687Z,6.23
2023-12-29T07:42:03.980Z,6.21
2023-12-29T07:44:48.785Z,6.63
2023-12-29T07:47:46.442Z,6.55
2023-12-29T07:50:44.083Z,5.97
2023-12-29T07:53:32.140Z,5.77
2023-12-29T07:56:17.346Z,5.33
2023-12-29T07:59:02.585Z,6.09
2023-12-29T08:01:47.940Z,5.42
2023-12-29T08:04:33.056Z,6.15
2023-12-29T08:07:18.357Z,6.97
2023-12-29T08:10:03.538Z,6.27
2023-12-29T08:12:48.685Z,6.12
2023-12-29T08:15:33.926Z,6.02
2023-12-29T08:18:19.198Z,5.85
2023-12-29T08:21:04.184Z,6.20
2023-12-29T08:23:49.348Z,6.35
2023-12-29T08:26:34.415Z,6.03
2023-12-29T08:29:19.442Z,6.78
2023-12-29T08:32:04.801Z,6.59
2023-12-29T08:34:50.030Z,6.66
2023-12-29T08:37:35.002Z,13.26
2023-12-29T08:40:19.966Z,16.44
2023-12-29T08:43:04.894Z,8.80
2023-12-29T08:45:50.159Z,9.61
2023-12-29T08:48:35.368Z,8.70
2023-12-29T08:51:20.496Z,8.22
2023-12-29T08:54:05.589Z,7.99
2023-12-29T08:56:50.681Z,7.39
2023-12-29T08:59:35.843Z,6.66
2023-12-29T09:02:20.978Z,6.81
2023-12-29T09:05:05.842Z,7.76
2023-12-29T09:07:50.889Z,7.87
2023-12-29T09:10:35.976Z,7.01
2023-12-29T09:13:21.236Z,7.47
2023-12-29T09:16:06.730Z,9.10
2023-12-29T09:18:51.726Z,6.86
2023-12-29T09:21:36.849Z,6.68
2023-12-29T09:24:22.044Z,7.00
2023-12-29T09:27:07.165Z,11.34
2023-12-29T09:29:52.337Z,14.76
2023-12-29T09:32:37.531Z,10.98
2023-12-29T09:35:22.703Z,8.21
2023-12-29T09:38:08.020Z,7.36
2023-12-29T09:40:53.168Z,6.67
2023-12-29T09:43:38.045Z,6.03
2023-12-29T09:46:23.348Z,6.40
2023-12-29T09:49:08.462Z,6.77
2023-12-29T09:51:53.498Z,9.24
2023-12-29T09:54:38.765Z,10.97
2023-12-29T09:57:23.916Z,12.67
2023-12-29T10:00:09.129Z,8.25
2023-12-29T10:02:54.483Z,9.02
2023-12-29T10:05:41.783Z,7.66
2023-12-29T10:08:26.937Z,10.48
2023-12-29T10:11:11.967Z,7.01
2023-12-29T10:13:56.967Z,8.61
2023-12-29T10:16:42.273Z,9.37
2023-12-29T10:19:27.166Z,9.18
2023-12-29T10:22:12.376Z,8.08
2023-12-29T10:24:57.524Z,10.54
2023-12-29T10:27:42.746Z,11.88
2023-12-29T10:30:31.866Z,8.83
2023-12-29T10:33:20.764Z,9.16
2023-12-29T10:36:05.584Z,7.89
2023-12-29T10:38:50.798Z,7.41
2023-12-29T10:41:35.962Z,6.51
2023-12-29T10:44:21.276Z,7.39
2023-12-29T10:47:06.204Z,6.49
2023-12-29T10:49:51.466Z,6.93
2023-12-29T10:52:36.543Z,13.53
2023-12-29T10:55:21.786Z,13.61
2023-12-29T10:58:07.142Z,6.87
2023-12-29T11:00:52.770Z,10.28
2023-12-29T11:03:40.498Z,10.02
2023-12-29T11:06:25.477Z,7.42
2023-12-29T11:09:10.562Z,8.23
2023-12-29T11:11:55.607Z,7.93
2023-12-29T11:14:40.793Z,8.08
2023-12-29T11:17:26.124Z,8.18
2023-12-29T11:20:11.168Z,7.85
2023-12-29T11:22:56.288Z,8.85
2023-12-29T11:25:41.371Z,7.10
2023-12-29T11:28:26.451Z,6.98
2023-12-29T11:31:11.660Z,6.75
2023-12-29T11:33:56.747Z,7.10
2023-12-29T11:36:42.037Z,6.78
2023-12-29T11:39:27.097Z,6.57
2023-12-29T11:42:12.255Z,6.65
2023-12-29T11:44:57.325Z,6.43
2023-12-29T11:47:42.524Z,6.59
2023-12-29T11:50:27.865Z,7.54
2023-12-29T11:53:12.753Z,7.01
2023-12-29T11:55:57.755Z,6.34
2023-12-29T11:58:42.817Z,8.75
2023-12-29T12:01:28.069Z,10.48
2023-12-29T12:04:13.164Z,6.51
2023-12-29T12:06:58.436Z,9.87
2023-12-29T12:09:45.726Z,6.74
2023-12-29T12:12:31.725Z,6.56
2023-12-29T12:15:16.589Z,6.07
2023-12-29T12:18:01.909Z,8.82
2023-12-29T12:20:46.943Z,6.59
2023-12-29T12:23:32.233Z,6.82
2023-12-29T12:26:17.122Z,6.62
2023-12-29T12:29:02.223Z,8.98
2023-12-29T12:31:47.410Z,6.74
2023-12-29T12:34:32.753Z,6.15
2023-12-29T12:37:17.960Z,6.48
2023-12-29T12:40:03.166Z,6.57
2023-12-29T12:42:48.035Z,8.26
2023-12-29T12:45:33.097Z,6.33
2023-12-29T12:48:18.378Z,6.53
2023-12-29T12:51:03.611Z,6.40
2023-12-29T12:53:48.359Z,7.32
2023-12-29T12:56:33.652Z,5.85
2023-12-29T12:59:18.454Z,9.08
2023-12-29T13:02:03.836Z,20.01
2023-12-29T13:04:49.371Z,13.75
2023-12-29T13:07:34.648Z,9.49
2023-12-29T13:10:19.652Z,7.93
2023-12-29T13:13:05.076Z,6.76
2023-12-29T13:15:50.445Z,7.01
2023-12-29T13:18:35.346Z,7.52
2023-12-29T13:21:20.368Z,6.78
2023-12-29T13:24:05.417Z,6.67
2023-12-29T13:26:50.558Z,6.89
2023-12-29T13:29:35.626Z,8.34
2023-12-29T13:32:20.898Z,6.66
2023-12-29T13:35:06.250Z,14.36
2023-12-29T13:37:51.454Z,13.77
2023-12-29T13:40:36.487Z,7.69
2023-12-29T13:43:21.369Z,6.28
2023-12-29T13:46:06.579Z,6.79
2023-12-29T13:48:51.728Z,5.63
2023-12-29T13:51:36.926Z,6.69
2023-12-29T13:54:22.093Z,7.41
2023-12-29T13:57:07.165Z,11.06
2023-12-29T13:59:52.438Z,19.84
2023-12-29T14:02:37.542Z,10.46
2023-12-29T14:05:22.848Z,8.66
2023-12-29T14:08:07.881Z,7.32
2023-12-29T14:10:53.121Z,6.23
2023-12-29T14:13:38.033Z,5.93
2023-12-29T14:16:23.060Z,6.77
2023-12-29T14:19:08.435Z,6.74
2023-12-29T14:21:53.531Z,6.54
2023-12-29T14:24:38.712Z,6.81
2023-12-29T14:27:23.884Z,7.05
2023-12-29T14:30:09.077Z,7.07
2023-12-29T14:32:54.182Z,7.32
2023-12-29T14:35:39.282Z,6.39
2023-12-29T14:38:24.480Z,6.09
2023-12-29T14:41:09.611Z,5.87
2023-12-29T14:43:54.812Z,5.33
2023-12-29T14:46:39.941Z,5.43
2023-12-29T14:49:24.986Z,5.45
2023-12-29T14:52:10.081Z,6.22
2023-12-29T14:54:55.200Z,6.73
2023-12-29T14:57:40.410Z,5.85
2023-12-29T15:00:25.340Z,5.72
2023-12-29T15:03:10.340Z,6.02
2023-12-29T15:05:56.579Z,5.94
2023-12-29T15:08:42.397Z,5.93
2023-12-29T15:11:27.251Z,6.00
2023-12-29T15:14:12.418Z,14.44
2023-12-29T15:16:57.738Z,8.18
2023-12-29T15:19:42.600Z,8.39
2023-12-29T15:22:27.879Z,7.94
2023-12-29T15:25:13.065Z,8.33
2023-12-29T15:27:58.314Z,6.59
2023-12-29T15:30:43.358Z,6.41
2023-12-29T15:33:28.607Z,6.52
2023-12-29T15:36:13.756Z,6.88
2023-12-29T15:38:58.697Z,6.72
2023-12-29T15:41:43.956Z,6.98
2023-12-29T15:44:29.103Z,6.84
2023-12-29T15:47:14.329Z,21.41
2023-12-29T15:49:59.581Z,20.38
2023-12-29T15:52:44.633Z,10.98
2023-12-29T15:55:29.782Z,10.12
2023-12-29T15:58:14.982Z,7.52
2023-12-29T16:01:00.399Z,6.69
2023-12-29T16:03:45.530Z,6.56
2023-12-29T16:06:30.836Z,6.49
2023-12-29T16:09:15.839Z,7.65
2023-12-29T16:12:00.989Z,9.25
2023-12-29T16:14:46.279Z,8.44
2023-12-29T16:17:31.237Z,7.73
2023-12-29T16:20:16.599Z,11.91
2023-12-29T16:23:01.570Z,12.92
2023-12-29T16:25:46.707Z,9.63
2023-12-29T16:28:32.927Z,9.62
2023-12-29T16:31:18.016Z,15.87
2023-12-29T16:34:03.229Z,13.15
2023-12-29T16:36:48.373Z,7.95
2023-12-29T16:39:33.543Z,7.58
2023-12-29T16:42:18.692Z,8.10
2023-12-29T16:45:06.948Z,8.08
2023-12-29T16:47:52.156Z,7.45
2023-12-29T16:50:37.358Z,7.52
2023-12-29T16:53:22.477Z,7.41
2023-12-29T16:56:07.668Z,8.10
2023-12-29T16:58:52.816Z,7.51
2023-12-29T17:01:38.470Z,8.03
2023-12-29T17:04:26.281Z,8.39
2023-12-29T17:07:11.257Z,8.41
2023-12-29T17:09:56.536Z,8.89
2023-12-29T17:12:42.053Z,9.18
2023-12-29T17:15:26.990Z,9.30
2023-12-29T17:18:12.301Z,9.64
2023-12-29T17:20:57.534Z,9.90
2023-12-29T17:23:43.839Z,10.34
2023-12-29T17:26:33.188Z,10.11
2023-12-29T17:29:17.992Z,9.47
2023-12-29T17:32:05.499Z,16.40
2023-12-29T17:34:55.463Z,12.33
2023-12-29T17:37:41.514Z,16.67
2023-12-29T17:40:26.999Z,9.96
2023-12-29T17:43:12.358Z,10.06
2023-12-29T17:45:57.211Z,29.15
2023-12-29T17:48:42.475Z,11.04
2023-12-29T17:51:27.767Z,10.39
2023-12-29T17:54:15.406Z,9.83
2023-12-29T17:57:00.787Z,10.59
2023-12-29T17:59:45.832Z,10.45
2023-12-29T18:05:34.241Z,10.66
2023-12-29T18:11:18.321Z,23.50
2023-12-29T18:14:06.035Z,17.08
2023-12-29T18:16:51.015Z,10.07
2023-12-29T18:19:36.074Z,15.63
2023-12-29T18:22:21.641Z,20.96
2023-12-29T18:25:07.078Z,11.49
2023-12-29T18:27:55.067Z,11.30
2023-12-29T18:30:40.233Z,36.44
2023-12-29T18:33:27.587Z,21.19
2023-12-29T18:36:13.583Z,14.01
2023-12-29T18:38:58.484Z,13.03
2023-12-29T18:41:47.207Z,12.08
2023-12-29T18:44:32.759Z,11.75
2023-12-29T18:47:25.935Z,13.85
2023-12-29T18:50:11.404Z,14.17
2023-12-29T18:52:56.577Z,20.57
2023-12-29T18:55:44.215Z,11.28
2023-12-29T18:58:29.230Z,9.44
2023-12-29T19:01:14.415Z,16.53
2023-12-29T19:03:59.662Z,9.13
2023-12-29T19:06:44.831Z,8.75
2023-12-29T19:09:29.996Z,9.35
2023-12-29T19:12:15.373Z,8.81
2023-12-29T19:15:00.445Z,8.70
2023-12-29T19:17:45.695Z,8.86
2023-12-29T19:20:31.038Z,10.15
2023-12-29T19:23:15.882Z,11.03
2023-12-29T19:26:00.902Z,10.90
2023-12-29T19:28:46.097Z,10.63
2023-12-29T19:31:31.206Z,11.19
2023-12-29T19:34:16.324Z,10.62
2023-12-29T19:37:01.495Z,10.50
2023-12-29T19:39:47.889Z,9.93
2023-12-29T19:42:33.199Z,9.93
2023-12-29T19:45:21.491Z,9.82
2023-12-29T19:48:09.242Z,10.36
2023-12-29T19:50:54.200Z,9.81
2023-12-29T19:53:39.398Z,10.72
2023-12-29T19:56:24.740Z,11.32
2023-12-29T19:59:09.762Z,11.02
2023-12-29T20:01:54.870Z,11.20
2023-12-29T20:04:40.030Z,12.03
2023-12-29T20:07:25.421Z,10.95
2023-12-29T20:10:10.708Z,11.44
2023-12-29T20:12:56.095Z,11.50
2023-12-29T20:15:41.212Z,13.65
2023-12-29T20:18:26.411Z,13.48
2023-12-29T20:21:11.774Z,11.80
2023-12-29T20:23:56.806Z,12.74
2023-12-29T20:26:42.021Z,15.86
2023-12-29T20:29:27.056Z,13.24
2023-12-29T20:32:12.258Z,14.32
2023-12-29T20:34:57.382Z,12.14
2023-12-29T20:37:42.189Z,16.03
2023-12-29T20:40:27.543Z,15.80
2023-12-29T20:43:14.147Z,14.20
2023-12-29T20:45:59.347Z,14.19
2023-12-29T20:48:44.271Z,13.56
2023-12-29T20:51:30.060Z,13.53
2023-12-29T20:54:15.097Z,13.49
2023-12-29T20:57:00.191Z,13.48
2023-12-29T20:59:45.249Z,13.83
2023-12-29T21:02:30.314Z,12.87
2023-12-29T21:05:17.926Z,12.96
2023-12-29T21:08:04.257Z,15.55
2023-12-29T21:10:49.266Z,13.95
2023-12-29T21:13:34.593Z,12.21
2023-12-29T21:16:20.027Z,12.25
2023-12-29T21:19:05.450Z,12.95
2023-12-29T21:21:50.587Z,12.84
2023-12-29T21:24:37.768Z,12.90
2023-12-29T21:27:22.879Z,13.78
2023-12-29T21:30:08.122Z,13.81
2023-12-29T21:32:53.967Z,13.94
2023-12-29T21:35:39.228Z,13.41
2023-12-29T21:38:24.302Z,14.30
2023-12-29T21:41:09.506Z,14.24
2023-12-29T21:46:53.471Z,14.58
2023-12-29T21:49:38.422Z,14.64
2023-12-29T21:52:23.719Z,14.47
2023-12-29T21:55:08.635Z,13.93
2023-12-29T21:57:54.271Z,13.97
2023-12-29T22:00:39.487Z,13.64
2023-12-29T22:03:24.930Z,14.07
2023-12-29T22:06:09.890Z,14.61
2023-12-29T22:08:55.170Z,14.56
2023-12-29T22:11:39.904Z,15.79
2023-12-29T22:14:25.202Z,15.24
2023-12-29T22:17:10.290Z,20.40
2023-12-29T22:19:55.652Z,16.90
2023-12-29T22:22:40.624Z,16.65
2023-12-29T22:25:27.436Z,15.90
2023-12-29T22:28:13.015Z,16.75
2023-12-29T22:30:58.318Z,16.05
2023-12-29T22:33:43.743Z,16.19
2023-12-29T22:36:28.862Z,16.05
2023-12-29T22:39:13.877Z,17.70
2023-12-29T22:41:59.088Z,16.07
2023-12-29T22:44:44.665Z,16.33
2023-12-29T22:47:29.866Z,15.51
2023-12-29T22:50:14.950Z,16.15
2023-12-29T22:53:00.501Z,15.81
2023-12-29T22:55:46.142Z,14.16
2023-12-29T22:58:31.179Z,13.77
2023-12-29T23:01:16.408Z,15.49
2023-12-29T23:04:01.465Z,15.03
2023-12-29T23:06:46.589Z,15.76
2023-12-29T23:09:31.649Z,16.55
2023-12-29T23:12:16.803Z,15.87
2023-12-29T23:15:01.792Z,14.62
2023-12-29T23:17:46.998Z,14.57
2023-12-29T23:20:32.090Z,14.55
2023-12-29T23:23:17.419Z,19.28
2023-12-29T23:26:03.625Z,15.87
2023-12-29T23:28:50.262Z,14.89
2023-12-29T23:31:35.260Z,15.96
2023-12-29T23:34:20.450Z,18.18
2023-12-29T23:37:08.673Z,16.22
2023-12-29T23:39:53.807Z,15.05
2023-12-29T23:42:38.847Z,14.36
2023-12-29T23:45:25.390Z,13.68
2023-12-29T23:48:10.902Z,14.41
2023-12-29T23:50:55.988Z,14.64
2023-12-29T23:53:45.451Z,14.35
2023-12-29T23:56:36.888Z,13.55
2023-12-29T23:59:24.560Z,13.72
